No particular awareness of the weather is required.    There are no Weather-warnings


Meteo18 Weather Cam more information Meteo18 Weather Cam


Thunder radar more information blitzortung!


Rain radar more information rain snow radar


Visit our other weather sites:

Template documentation
and downloads

And another site



Weather Underground History page Text

Daily Summary for September 17, 2017 Units:  Both    English   Metric
« Previous Day
Next Day »
Daily Weekly Monthly Yearly Custom
  High: Low: Average:
Temperature: TemperatureC °F /  -17.8 °C 9.2 °F /  -12.7 °C 10.4 °F /  -12 °C
Dew Point: DewpointC °F /  -17.8 °C 7.9 °F /  -13.4 °C 8.9 °F /  -12.8 °C
Humidity: Humidity % 77 % 91 %
Wind Speed: WindSpeedKMH mph /  0 km/h - 3.1 mph /  5 km/h
Wind Gust: WindSpeedGustKMH mph /  0 km/h - -
Wind:- - SW
Pressure: PressurehPa in /  0 hPa 1013.4 in /  34313.7 hPa -
Precipitation: 4.3 in /  109.22 mm    
Historical Graphs
 
 
Tabular Data for September 17, 2017
Time Temperature Dew Point Pressure Wind Wind Speed Wind Gust Humidity Rainfall Rate (Hourly)
TemperatureC °F /  -17.8 °C DewpointC °F /  -17.8 °C PressurehPa in /  0 hPa Calm     Humidity % HourlyPrecipMM in /  0 mm
00:02 9.3 °F /  -12.6 °C 8.5 °F /  -13.1 °C 1014.1 in /  34337.4 hPa Calm   3.2 mph /  5.1 km/h 95 % 0.0 in /  0 mm
00:07 9.3 °F /  -12.6 °C 8.5 °F /  -13.1 °C 1014.1 in /  34337.4 hPa Calm   3.2 mph /  5.1 km/h 95 % 0.0 in /  0 mm
00:12 9.3 °F /  -12.6 °C 8.5 °F /  -13.1 °C 1014.1 in /  34337.4 hPa SE 1.6 mph /  2.6 km/h 3.2 mph /  5.1 km/h 95 % 0.0 in /  0 mm
00:17 9.4 °F /  -12.6 °C 8.6 °F /  -13 °C 1014.1 in /  34337.4 hPa South 3.2 mph /  5.1 km/h 3.2 mph /  5.1 km/h 95 % 0.0 in /  0 mm
00:22 9.5 °F /  -12.5 °C 8.7 °F /  -12.9 °C 1014.1 in /  34337.4 hPa SW 6.4 mph /  10.3 km/h 6.4 mph /  10.3 km/h 95 % 0.0 in /  0 mm
00:32 9.7 °F /  -12.4 °C 8.9 °F /  -12.8 °C 1014.1 in /  34337.4 hPa SSW 4.8 mph /  7.7 km/h 6.4 mph /  10.3 km/h 95 % 0.0 in /  0 mm
00:37 9.6 °F /  -12.4 °C 8.8 °F /  -12.9 °C 1014.1 in /  34337.4 hPa SSW 3.2 mph /  5.1 km/h 11.3 mph /  18.2 km/h 95 % 0.3 in /  7.62 mm
00:42 9.6 °F /  -12.4 °C 8.7 °F /  -12.9 °C 1014.1 in /  34337.4 hPa South 3.2 mph /  5.1 km/h 11.3 mph /  18.2 km/h 94 % 0.5 in /  12.7 mm
00:47 9.6 °F /  -12.4 °C 8.7 °F /  -12.9 °C 1014.1 in /  34337.4 hPa SSW 4.8 mph /  7.7 km/h 9.7 mph /  15.6 km/h 94 % 0.5 in /  12.7 mm
00:52 9.6 °F /  -12.4 °C 8.7 °F /  -12.9 °C 1013.8 in /  34327.3 hPa SSW 3.2 mph /  5.1 km/h 9.7 mph /  15.6 km/h 94 % 0.5 in /  12.7 mm
00:57 9.6 °F /  -12.4 °C 8.8 °F /  -12.9 °C 1014.1 in /  34337.4 hPa SW 1.6 mph /  2.6 km/h 8.0 mph /  12.9 km/h 95 % 0.5 in /  12.7 mm
01:02 9.6 °F /  -12.4 °C 8.8 °F /  -12.9 °C 1013.8 in /  34327.3 hPa SSE 1.6 mph /  2.6 km/h 8.0 mph /  12.9 km/h 95 % 1.0 in /  25.4 mm
01:07 9.6 °F /  -12.4 °C 8.8 °F /  -12.9 °C 1013.8 in /  34327.3 hPa Calm   6.4 mph /  10.3 km/h 95 % 1.3 in /  33.02 mm
01:12 9.6 °F /  -12.4 °C 8.8 °F /  -12.9 °C 1013.8 in /  34327.3 hPa SW 4.8 mph /  7.7 km/h 4.8 mph /  7.7 km/h 95 % 1.3 in /  33.02 mm
01:17 9.6 °F /  -12.4 °C 8.8 °F /  -12.9 °C 1013.8 in /  34327.3 hPa SSW 1.6 mph /  2.6 km/h 6.4 mph /  10.3 km/h 95 % 1.3 in /  33.02 mm
01:22 9.6 °F /  -12.4 °C 8.8 °F /  -12.9 °C 1013.8 in /  34327.3 hPa SSW 1.6 mph /  2.6 km/h 6.4 mph /  10.3 km/h 95 % 1.3 in /  33.02 mm
01:27 9.6 °F /  -12.4 °C 8.8 °F /  -12.9 °C 1013.8 in /  34327.3 hPa SW 1.6 mph /  2.6 km/h 6.4 mph /  10.3 km/h 95 % 1.3 in /  33.02 mm
01:32 9.6 °F /  -12.4 °C 8.8 °F /  -12.9 °C 1013.8 in /  34327.3 hPa SW 1.6 mph /  2.6 km/h 4.8 mph /  7.7 km/h 95 % 1.5 in /  38.1 mm
01:37 9.5 °F /  -12.5 °C 8.7 °F /  -12.9 °C 1013.8 in /  34327.3 hPa SW 3.2 mph /  5.1 km/h 4.8 mph /  7.7 km/h 95 % 1.5 in /  38.1 mm
01:42 9.5 °F /  -12.5 °C 8.7 °F /  -12.9 °C 1013.8 in /  34327.3 hPa SW 4.8 mph /  7.7 km/h 4.8 mph /  7.7 km/h 95 % 1.5 in /  38.1 mm
01:47 9.5 °F /  -12.5 °C 8.7 °F /  -12.9 °C 1013.8 in /  34327.3 hPa SW 4.8 mph /  7.7 km/h 9.7 mph /  15.6 km/h 95 % 1.5 in /  38.1 mm
01:52 9.5 °F /  -12.5 °C 8.7 °F /  -12.9 °C 1013.8 in /  34327.3 hPa WSW 4.8 mph /  7.7 km/h 11.3 mph /  18.2 km/h 95 % 1.3 in /  33.02 mm
01:57 9.5 °F /  -12.5 °C 8.7 °F /  -12.9 °C 1013.8 in /  34327.3 hPa SW 4.8 mph /  7.7 km/h 11.3 mph /  18.2 km/h 95 % 1.0 in /  25.4 mm
02:02 9.5 °F /  -12.5 °C 8.7 °F /  -12.9 °C 1013.8 in /  34327.3 hPa SSW 3.2 mph /  5.1 km/h 11.3 mph /  18.2 km/h 95 % 0.8 in /  20.32 mm
02:07 9.6 °F /  -12.4 °C 8.7 °F /  -12.9 °C 1013.8 in /  34327.3 hPa WNW 3.2 mph /  5.1 km/h 9.7 mph /  15.6 km/h 94 % 0.5 in /  12.7 mm
02:12 9.6 °F /  -12.4 °C 8.7 °F /  -12.9 °C 1013.8 in /  34327.3 hPa West 4.8 mph /  7.7 km/h 9.7 mph /  15.6 km/h 94 % 0.5 in /  12.7 mm
02:17 9.6 °F /  -12.4 °C 8.7 °F /  -12.9 °C 1013.8 in /  34327.3 hPa WSW 3.2 mph /  5.1 km/h 11.3 mph /  18.2 km/h 94 % 0.5 in /  12.7 mm
02:22 9.6 °F /  -12.4 °C 8.5 °F /  -13.1 °C 1013.8 in /  34327.3 hPa SW 3.2 mph /  5.1 km/h 11.3 mph /  18.2 km/h 93 % 0.5 in /  12.7 mm
02:32 9.6 °F /  -12.4 °C 8.5 °F /  -13.1 °C 1013.8 in /  34327.3 hPa Calm   8.0 mph /  12.9 km/h 93 % 0.0 in /  0 mm
02:37 9.6 °F /  -12.4 °C 8.5 °F /  -13.1 °C 1013.8 in /  34327.3 hPa SW 1.6 mph /  2.6 km/h 6.4 mph /  10.3 km/h 93 % 0.0 in /  0 mm
02:42 9.6 °F /  -12.4 °C 8.5 °F /  -13.1 °C 1013.8 in /  34327.3 hPa SW 1.6 mph /  2.6 km/h 4.8 mph /  7.7 km/h 93 % 0.0 in /  0 mm
02:47 9.6 °F /  -12.4 °C 8.5 °F /  -13.1 °C 1013.4 in /  34313.7 hPa Calm   4.8 mph /  7.7 km/h 93 % 0.0 in /  0 mm
02:52 9.5 °F /  -12.5 °C 8.4 °F /  -13.1 °C 1013.4 in /  34313.7 hPa Calm   4.8 mph /  7.7 km/h 93 % 0.0 in /  0 mm
02:57 9.5 °F /  -12.5 °C 8.4 °F /  -13.1 °C 1013.4 in /  34313.7 hPa Calm   3.2 mph /  5.1 km/h 93 % 0.0 in /  0 mm
03:02 9.4 °F /  -12.6 °C 8.5 °F /  -13.1 °C 1013.4 in /  34313.7 hPa Calm   1.6 mph /  2.6 km/h 94 % 0.0 in /  0 mm
03:07 9.4 °F /  -12.6 °C 8.5 °F /  -13.1 °C 1013.4 in /  34313.7 hPa SW 1.6 mph /  2.6 km/h 1.6 mph /  2.6 km/h 94 % 0.0 in /  0 mm
03:12 9.4 °F /  -12.6 °C 8.5 °F /  -13.1 °C 1013.8 in /  34327.3 hPa SSW 1.6 mph /  2.6 km/h 3.2 mph /  5.1 km/h 94 % 0.0 in /  0 mm
03:17 9.4 °F /  -12.6 °C 8.5 °F /  -13.1 °C 1013.8 in /  34327.3 hPa SSW 1.6 mph /  2.6 km/h 3.2 mph /  5.1 km/h 94 % 0.0 in /  0 mm
03:22 9.3 °F /  -12.6 °C 8.4 °F /  -13.1 °C 1013.4 in /  34313.7 hPa Calm   3.2 mph /  5.1 km/h 94 % 0.0 in /  0 mm
03:27 9.3 °F /  -12.6 °C 8.4 °F /  -13.1 °C 1013.4 in /  34313.7 hPa Calm   3.2 mph /  5.1 km/h 94 % 0.0 in /  0 mm
03:32 9.4 °F /  -12.6 °C 8.6 °F /  -13 °C 1013.4 in /  34313.7 hPa SSW 1.6 mph /  2.6 km/h 3.2 mph /  5.1 km/h 95 % 0.0 in /  0 mm
03:37 9.3 °F /  -12.6 °C 8.5 °F /  -13.1 °C 1013.4 in /  34313.7 hPa Calm   3.2 mph /  5.1 km/h 95 % 0.0 in /  0 mm
03:42 9.3 °F /  -12.6 °C 8.5 °F /  -13.1 °C 1013.4 in /  34313.7 hPa Calm   3.2 mph /  5.1 km/h 95 % 0.0 in /  0 mm
03:47 9.3 °F /  -12.6 °C 8.5 °F /  -13.1 °C 1013.4 in /  34313.7 hPa Calm   3.2 mph /  5.1 km/h 95 % 0.0 in /  0 mm
03:52 9.3 °F /  -12.6 °C 8.5 °F /  -13.1 °C 1013.4 in /  34313.7 hPa Calm   1.6 mph /  2.6 km/h 95 % 0.0 in /  0 mm
04:02 9.2 °F /  -12.7 °C 8.4 °F /  -13.1 °C 1013.8 in /  34327.3 hPa Calm   1.6 mph /  2.6 km/h 95 % 0.0 in /  0 mm
04:07 9.2 °F /  -12.7 °C 8.4 °F /  -13.1 °C 1013.8 in /  34327.3 hPa Calm   3.2 mph /  5.1 km/h 95 % 0.0 in /  0 mm
04:12 9.2 °F /  -12.7 °C 8.4 °F /  -13.1 °C 1013.4 in /  34313.7 hPa Calm   3.2 mph /  5.1 km/h 95 % 0.0 in /  0 mm
04:17 9.2 °F /  -12.7 °C 8.4 °F /  -13.1 °C 1013.4 in /  34313.7 hPa Calm   3.2 mph /  5.1 km/h 95 % 0.0 in /  0 mm
04:22 9.2 °F /  -12.7 °C 8.4 °F /  -13.1 °C 1013.8 in /  34327.3 hPa Calm   3.2 mph /  5.1 km/h 95 % 0.0 in /  0 mm
04:27 9.3 °F /  -12.6 °C 8.5 °F /  -13.1 °C 1013.8 in /  34327.3 hPa Calm   3.2 mph /  5.1 km/h 95 % 0.0 in /  0 mm
04:32 9.4 °F /  -12.6 °C 8.8 °F /  -12.9 °C 1013.8 in /  34327.3 hPa Calm   3.2 mph /  5.1 km/h 96 % 0.0 in /  0 mm
04:37 9.4 °F /  -12.6 °C 8.8 °F /  -12.9 °C 1013.8 in /  34327.3 hPa SW 1.6 mph /  2.6 km/h 3.2 mph /  5.1 km/h 96 % 0.0 in /  0 mm
04:42 9.5 °F /  -12.5 °C 8.9 °F /  -12.8 °C 1013.8 in /  34327.3 hPa SW 6.4 mph /  10.3 km/h 6.4 mph /  10.3 km/h 96 % 0.0 in /  0 mm
04:47 9.6 °F /  -12.4 °C 9.0 °F /  -12.8 °C 1013.4 in /  34313.7 hPa Calm   6.4 mph /  10.3 km/h 96 % 0.0 in /  0 mm
04:52 9.6 °F /  -12.4 °C 9.0 °F /  -12.8 °C 1013.4 in /  34313.7 hPa SW 1.6 mph /  2.6 km/h 6.4 mph /  10.3 km/h 96 % 0.0 in /  0 mm
04:57 9.6 °F /  -12.4 °C 9.0 °F /  -12.8 °C 1013.4 in /  34313.7 hPa Calm   6.4 mph /  10.3 km/h 96 % 0.0 in /  0 mm
05:02 9.6 °F /  -12.4 °C 9.0 °F /  -12.8 °C 1013.4 in /  34313.7 hPa Calm   6.4 mph /  10.3 km/h 96 % 0.0 in /  0 mm
05:12 9.6 °F /  -12.4 °C 9.0 °F /  -12.8 °C 1013.4 in /  34313.7 hPa Calm   4.8 mph /  7.7 km/h 96 % 0.0 in /  0 mm
05:22 9.6 °F /  -12.4 °C 9.0 °F /  -12.8 °C 1013.4 in /  34313.7 hPa Calm     96 % 0.0 in /  0 mm
05:27 9.6 °F /  -12.4 °C 9.0 °F /  -12.8 °C 1013.4 in /  34313.7 hPa Calm     96 % 0.0 in /  0 mm
05:32 9.6 °F /  -12.4 °C 9.0 °F /  -12.8 °C 1013.4 in /  34313.7 hPa SW 4.8 mph /  7.7 km/h   96 % 0.0 in /  0 mm
05:42 9.6 °F /  -12.4 °C 9.0 °F /  -12.8 °C 1013.4 in /  34313.7 hPa Calm   3.2 mph /  5.1 km/h 96 % 0.0 in /  0 mm
05:52 9.7 °F /  -12.4 °C 9.1 °F /  -12.7 °C 1013.4 in /  34313.7 hPa SSE 1.6 mph /  2.6 km/h 4.8 mph /  7.7 km/h 96 % 0.0 in /  0 mm
05:57 9.7 °F /  -12.4 °C 9.1 °F /  -12.7 °C 1013.4 in /  34313.7 hPa Calm   3.2 mph /  5.1 km/h 96 % 0.0 in /  0 mm
06:02 9.7 °F /  -12.4 °C 9.1 °F /  -12.7 °C 1013.4 in /  34313.7 hPa SSW 4.8 mph /  7.7 km/h 4.8 mph /  7.7 km/h 96 % 0.0 in /  0 mm
06:12 9.7 °F /  -12.4 °C 9.1 °F /  -12.7 °C 1013.4 in /  34313.7 hPa SSW 6.4 mph /  10.3 km/h 6.4 mph /  10.3 km/h 96 % 0.0 in /  0 mm
06:17 9.7 °F /  -12.4 °C 9.1 °F /  -12.7 °C 1013.4 in /  34313.7 hPa SW 3.2 mph /  5.1 km/h 8.0 mph /  12.9 km/h 96 % 0.0 in /  0 mm
06:22 9.7 °F /  -12.4 °C 9.1 °F /  -12.7 °C 1013.4 in /  34313.7 hPa SW 4.8 mph /  7.7 km/h 8.0 mph /  12.9 km/h 96 % 0.0 in /  0 mm
06:32 9.7 °F /  -12.4 °C 9.1 °F /  -12.7 °C 1013.4 in /  34313.7 hPa SW 6.4 mph /  10.3 km/h 8.0 mph /  12.9 km/h 96 % 0.0 in /  0 mm
06:37 9.8 °F /  -12.3 °C 9.2 °F /  -12.7 °C 1013.4 in /  34313.7 hPa SW 3.2 mph /  5.1 km/h 11.3 mph /  18.2 km/h 96 % 0.0 in /  0 mm
06:42 9.8 °F /  -12.3 °C 9.2 °F /  -12.7 °C 1013.4 in /  34313.7 hPa SSW 3.2 mph /  5.1 km/h 11.3 mph /  18.2 km/h 96 % 0.0 in /  0 mm
06:47 9.8 °F /  -12.3 °C 9.0 °F /  -12.8 °C 1013.4 in /  34313.7 hPa SSW 8.0 mph /  12.9 km/h 11.3 mph /  18.2 km/h 95 % 0.0 in /  0 mm
06:52 9.8 °F /  -12.3 °C 9.0 °F /  -12.8 °C 1013.4 in /  34313.7 hPa SW 4.8 mph /  7.7 km/h 11.3 mph /  18.2 km/h 95 % 0.0 in /  0 mm
06:57 9.8 °F /  -12.3 °C 9.0 °F /  -12.8 °C 1013.4 in /  34313.7 hPa SW 1.6 mph /  2.6 km/h 9.7 mph /  15.6 km/h 95 % 0.0 in /  0 mm
07:02 9.8 °F /  -12.3 °C 9.0 °F /  -12.8 °C 1013.4 in /  34313.7 hPa SSW 1.6 mph /  2.6 km/h 9.7 mph /  15.6 km/h 95 % 0.0 in /  0 mm
07:12 9.8 °F /  -12.3 °C 9.0 °F /  -12.8 °C 1013.4 in /  34313.7 hPa SSW 3.2 mph /  5.1 km/h 8.0 mph /  12.9 km/h 95 % 0.0 in /  0 mm
07:17 9.8 °F /  -12.3 °C 9.0 °F /  -12.8 °C 1013.8 in /  34327.3 hPa Calm   8.0 mph /  12.9 km/h 95 % 0.0 in /  0 mm
07:22 9.8 °F /  -12.3 °C 9.0 °F /  -12.8 °C 1013.8 in /  34327.3 hPa SW 4.8 mph /  7.7 km/h 8.0 mph /  12.9 km/h 95 % 0.0 in /  0 mm
07:32 9.8 °F /  -12.3 °C 9.0 °F /  -12.8 °C 1013.8 in /  34327.3 hPa SW 4.8 mph /  7.7 km/h 8.0 mph /  12.9 km/h 95 % 0.0 in /  0 mm
07:37 9.8 °F /  -12.3 °C 9.0 °F /  -12.8 °C 1013.8 in /  34327.3 hPa SW 4.8 mph /  7.7 km/h 8.0 mph /  12.9 km/h 95 % 0.0 in /  0 mm
07:42 9.8 °F /  -12.3 °C 9.0 °F /  -12.8 °C 1013.8 in /  34327.3 hPa SW 4.8 mph /  7.7 km/h 8.0 mph /  12.9 km/h 95 % 0.0 in /  0 mm
07:52 9.9 °F /  -12.3 °C 9.1 °F /  -12.7 °C 1013.8 in /  34327.3 hPa SW 6.4 mph /  10.3 km/h 8.0 mph /  12.9 km/h 95 % 0.0 in /  0 mm
08:02 9.9 °F /  -12.3 °C 9.1 °F /  -12.7 °C 1013.8 in /  34327.3 hPa SSW 3.2 mph /  5.1 km/h 8.0 mph /  12.9 km/h 95 % 0.0 in /  0 mm
08:12 9.9 °F /  -12.3 °C 9.1 °F /  -12.7 °C 1013.8 in /  34327.3 hPa SSW 3.2 mph /  5.1 km/h 8.0 mph /  12.9 km/h 95 % 0.0 in /  0 mm
08:17 9.9 °F /  -12.3 °C 9.1 °F /  -12.7 °C 1014.1 in /  34337.4 hPa SE 1.6 mph /  2.6 km/h 9.7 mph /  15.6 km/h 95 % 0.0 in /  0 mm
08:22 9.9 °F /  -12.3 °C 9.1 °F /  -12.7 °C 1014.1 in /  34337.4 hPa SSW 1.6 mph /  2.6 km/h 9.7 mph /  15.6 km/h 95 % 0.0 in /  0 mm
08:32 9.9 °F /  -12.3 °C 9.1 °F /  -12.7 °C 1014.1 in /  34337.4 hPa Calm   8.0 mph /  12.9 km/h 95 % 0.0 in /  0 mm
08:37 9.9 °F /  -12.3 °C 9.1 °F /  -12.7 °C 1014.1 in /  34337.4 hPa Calm   4.8 mph /  7.7 km/h 95 % 0.0 in /  0 mm
08:42 9.9 °F /  -12.3 °C 9.1 °F /  -12.7 °C 1014.1 in /  34337.4 hPa Calm   4.8 mph /  7.7 km/h 95 % 0.0 in /  0 mm
08:47 9.9 °F /  -12.3 °C 9.1 °F /  -12.7 °C 1014.1 in /  34337.4 hPa SSW 4.8 mph /  7.7 km/h 6.4 mph /  10.3 km/h 95 % 0.0 in /  0 mm
08:52 9.9 °F /  -12.3 °C 9.1 °F /  -12.7 °C 1014.1 in /  34337.4 hPa Calm   6.4 mph /  10.3 km/h 95 % 0.0 in /  0 mm
08:57 9.9 °F /  -12.3 °C 9.1 °F /  -12.7 °C 1014.1 in /  34337.4 hPa SW 3.2 mph /  5.1 km/h 6.4 mph /  10.3 km/h 95 % 0.0 in /  0 mm
09:02 9.9 °F /  -12.3 °C 9.1 °F /  -12.7 °C 1014.1 in /  34337.4 hPa South 1.6 mph /  2.6 km/h 6.4 mph /  10.3 km/h 95 % 0.0 in /  0 mm
09:12 9.9 °F /  -12.3 °C 9.1 °F /  -12.7 °C 1014.1 in /  34337.4 hPa SSW 1.6 mph /  2.6 km/h 6.4 mph /  10.3 km/h 95 % 0.0 in /  0 mm
09:17 9.9 °F /  -12.3 °C 9.1 °F /  -12.7 °C 1014.1 in /  34337.4 hPa SE 3.2 mph /  5.1 km/h 4.8 mph /  7.7 km/h 95 % 0.0 in /  0 mm
09:22 10.0 °F /  -12.2 °C 9.2 °F /  -12.7 °C 1014.1 in /  34337.4 hPa SSW 1.6 mph /  2.6 km/h 4.8 mph /  7.7 km/h 95 % 0.0 in /  0 mm
09:32 10.1 °F /  -12.2 °C 9.3 °F /  -12.6 °C 1014.1 in /  34337.4 hPa SSW 3.2 mph /  5.1 km/h 4.8 mph /  7.7 km/h 95 % 0.0 in /  0 mm
09:37 10.1 °F /  -12.2 °C 9.3 °F /  -12.6 °C 1014.1 in /  34337.4 hPa South 3.2 mph /  5.1 km/h 8.0 mph /  12.9 km/h 95 % 0.0 in /  0 mm
09:42 10.1 °F /  -12.2 °C 9.3 °F /  -12.6 °C 1014.1 in /  34337.4 hPa SW 8.0 mph /  12.9 km/h 8.0 mph /  12.9 km/h 95 % 0.0 in /  0 mm
09:47 10.1 °F /  -12.2 °C 9.2 °F /  -12.7 °C 1014.4 in /  34347.6 hPa SSW 4.8 mph /  7.7 km/h 11.3 mph /  18.2 km/h 94 % 0.0 in /  0 mm
09:52 10.1 °F /  -12.2 °C 9.2 °F /  -12.7 °C 1014.4 in /  34347.6 hPa SW 3.2 mph /  5.1 km/h 11.3 mph /  18.2 km/h 94 % 0.0 in /  0 mm
09:57 10.0 °F /  -12.2 °C 9.1 °F /  -12.7 °C 1014.4 in /  34347.6 hPa SW 8.0 mph /  12.9 km/h 14.5 mph /  23.3 km/h 94 % 0.3 in /  7.62 mm
10:02 10.0 °F /  -12.2 °C 9.1 °F /  -12.7 °C 1014.4 in /  34347.6 hPa SSW 3.2 mph /  5.1 km/h 14.5 mph /  23.3 km/h 94 % 0.3 in /  7.62 mm
10:12 10.1 °F /  -12.2 °C 9.2 °F /  -12.7 °C 1014.4 in /  34347.6 hPa WSW 6.4 mph /  10.3 km/h 12.9 mph /  20.8 km/h 94 % 0.3 in /  7.62 mm
10:17 10.2 °F /  -12.1 °C 9.3 °F /  -12.6 °C 1014.4 in /  34347.6 hPa SW 3.2 mph /  5.1 km/h 16.1 mph /  25.9 km/h 94 % 0.3 in /  7.62 mm
10:22 10.2 °F /  -12.1 °C 9.3 °F /  -12.6 °C 1014.4 in /  34347.6 hPa SW 4.8 mph /  7.7 km/h 16.1 mph /  25.9 km/h 94 % 0.3 in /  7.62 mm
10:32 10.3 °F /  -12.1 °C 9.2 °F /  -12.7 °C 1014.4 in /  34347.6 hPa WSW 3.2 mph /  5.1 km/h 9.7 mph /  15.6 km/h 93 % 0.3 in /  7.62 mm
10:42 10.3 °F /  -12.1 °C 9.1 °F /  -12.7 °C 1014.4 in /  34347.6 hPa WSW 6.4 mph /  10.3 km/h 12.9 mph /  20.8 km/h 92 % 0.3 in /  7.62 mm
10:47 10.3 °F /  -12.1 °C 8.9 °F /  -12.8 °C 1014.4 in /  34347.6 hPa WSW 6.4 mph /  10.3 km/h 12.9 mph /  20.8 km/h 91 % 0.3 in /  7.62 mm
10:52 10.4 °F /  -12 °C 9.2 °F /  -12.7 °C 1014.4 in /  34347.6 hPa West 1.6 mph /  2.6 km/h 12.9 mph /  20.8 km/h 92 % 0.3 in /  7.62 mm
10:57 10.3 °F /  -12.1 °C 8.9 °F /  -12.8 °C 1014.8 in /  34361.1 hPa WSW 4.8 mph /  7.7 km/h 12.9 mph /  20.8 km/h 91 % 0.0 in /  0 mm
11:02 10.4 °F /  -12 °C 9.2 °F /  -12.7 °C 1014.4 in /  34347.6 hPa SW 6.4 mph /  10.3 km/h 11.3 mph /  18.2 km/h 92 % 0.0 in /  0 mm
11:12 10.2 °F /  -12.1 °C 8.5 °F /  -13.1 °C 1014.4 in /  34347.6 hPa WSW 8.0 mph /  12.9 km/h 9.7 mph /  15.6 km/h 89 % 0.0 in /  0 mm
11:22 10.2 °F /  -12.1 °C 8.5 °F /  -13.1 °C 1014.4 in /  34347.6 hPa SSW 3.2 mph /  5.1 km/h 12.9 mph /  20.8 km/h 89 % 0.3 in /  7.62 mm
11:32 10.3 °F /  -12.1 °C 8.6 °F /  -13 °C 1014.4 in /  34347.6 hPa SW 4.8 mph /  7.7 km/h 12.9 mph /  20.8 km/h 89 % 0.3 in /  7.62 mm
11:37 10.3 °F /  -12.1 °C 8.7 °F /  -12.9 °C 1014.4 in /  34347.6 hPa Calm   8.0 mph /  12.9 km/h 90 % 0.3 in /  7.62 mm
11:42 10.3 °F /  -12.1 °C 8.7 °F /  -12.9 °C 1014.4 in /  34347.6 hPa SW 4.8 mph /  7.7 km/h 8.0 mph /  12.9 km/h 90 % 0.3 in /  7.62 mm
11:52 10.4 °F /  -12 °C 9.0 °F /  -12.8 °C 1014.4 in /  34347.6 hPa WSW 8.0 mph /  12.9 km/h 8.0 mph /  12.9 km/h 91 % 0.5 in /  12.7 mm
11:57 10.4 °F /  -12 °C 9.0 °F /  -12.8 °C 1014.4 in /  34347.6 hPa WSW 3.2 mph /  5.1 km/h 8.0 mph /  12.9 km/h 91 % 0.5 in /  12.7 mm
12:02 10.6 °F /  -11.9 °C 9.2 °F /  -12.7 °C 1014.4 in /  34347.6 hPa WSW 6.4 mph /  10.3 km/h 8.0 mph /  12.9 km/h 91 % 0.5 in /  12.7 mm
12:12 10.5 °F /  -11.9 °C 9.1 °F /  -12.7 °C 1014.4 in /  34347.6 hPa SW 9.7 mph /  15.6 km/h 9.7 mph /  15.6 km/h 91 % 0.5 in /  12.7 mm
12:17 10.6 °F /  -11.9 °C 9.4 °F /  -12.6 °C 1014.4 in /  34347.6 hPa SW 1.6 mph /  2.6 km/h 8.0 mph /  12.9 km/h 92 % 0.5 in /  12.7 mm
12:22 10.7 °F /  -11.8 °C 9.5 °F /  -12.5 °C 1014.4 in /  34347.6 hPa WSW 3.2 mph /  5.1 km/h 8.0 mph /  12.9 km/h 92 % 0.5 in /  12.7 mm
12:32 10.8 °F /  -11.8 °C 9.6 °F /  -12.4 °C 1014.4 in /  34347.6 hPa SW 1.6 mph /  2.6 km/h 11.3 mph /  18.2 km/h 92 % 0.5 in /  12.7 mm
12:37 10.8 °F /  -11.8 °C 9.4 °F /  -12.6 °C 1014.1 in /  34337.4 hPa SW 3.2 mph /  5.1 km/h 8.0 mph /  12.9 km/h 91 % 0.5 in /  12.7 mm
12:42 10.8 °F /  -11.8 °C 9.6 °F /  -12.4 °C 1014.1 in /  34337.4 hPa SSW 3.2 mph /  5.1 km/h 8.0 mph /  12.9 km/h 92 % 0.5 in /  12.7 mm
12:52 10.9 °F /  -11.7 °C 9.7 °F /  -12.4 °C 1014.1 in /  34337.4 hPa SW 6.4 mph /  10.3 km/h 8.0 mph /  12.9 km/h 92 % 0.5 in /  12.7 mm
12:57 10.9 °F /  -11.7 °C 9.7 °F /  -12.4 °C 1014.1 in /  34337.4 hPa SSW 3.2 mph /  5.1 km/h 11.3 mph /  18.2 km/h 92 % 0.8 in /  20.32 mm
13:02 10.9 °F /  -11.7 °C 9.7 °F /  -12.4 °C 1014.1 in /  34337.4 hPa WSW 11.3 mph /  18.2 km/h 11.3 mph /  18.2 km/h 92 % 0.8 in /  20.32 mm
13:12 10.7 °F /  -11.8 °C 8.8 °F /  -12.9 °C 1014.4 in /  34347.6 hPa SSW 9.7 mph /  15.6 km/h 17.7 mph /  28.5 km/h 88 % 0.5 in /  12.7 mm
13:17 10.8 °F /  -11.8 °C 9.1 °F /  -12.7 °C 1014.4 in /  34347.6 hPa South 9.7 mph /  15.6 km/h 17.7 mph /  28.5 km/h 89 % 0.5 in /  12.7 mm
13:32 10.9 °F /  -11.7 °C 9.2 °F /  -12.7 °C 1014.4 in /  34347.6 hPa SW 4.8 mph /  7.7 km/h 17.7 mph /  28.5 km/h 89 % 0.5 in /  12.7 mm
13:42 10.8 °F /  -11.8 °C 8.9 °F /  -12.8 °C 1014.1 in /  34337.4 hPa SSW 8.0 mph /  12.9 km/h 16.1 mph /  25.9 km/h 88 % 0.5 in /  12.7 mm
13:47 10.8 °F /  -11.8 °C 8.6 °F /  -13 °C 1014.1 in /  34337.4 hPa WSW 6.4 mph /  10.3 km/h 16.1 mph /  25.9 km/h 86 % 0.5 in /  12.7 mm
13:52 10.8 °F /  -11.8 °C 8.7 °F /  -12.9 °C 1014.1 in /  34337.4 hPa West 4.8 mph /  7.7 km/h 16.1 mph /  25.9 km/h 87 % 0.5 in /  12.7 mm
13:57 10.9 °F /  -11.7 °C 8.6 °F /  -13 °C 1014.1 in /  34337.4 hPa SW 6.4 mph /  10.3 km/h 12.9 mph /  20.8 km/h 86 % 0.3 in /  7.62 mm
14:02 10.8 °F /  -11.8 °C 8.2 °F /  -13.2 °C 1014.1 in /  34337.4 hPa SSW 8.0 mph /  12.9 km/h 16.1 mph /  25.9 km/h 84 % 0.3 in /  7.62 mm
14:07 10.8 °F /  -11.8 °C 8.7 °F /  -12.9 °C 1014.1 in /  34337.4 hPa SSW 3.2 mph /  5.1 km/h 16.1 mph /  25.9 km/h 87 % 0.3 in /  7.62 mm
14:12 10.9 °F /  -11.7 °C 8.6 °F /  -13 °C 1014.1 in /  34337.4 hPa SSW 1.6 mph /  2.6 km/h 16.1 mph /  25.9 km/h 86 % 0.3 in /  7.62 mm
14:17 10.9 °F /  -11.7 °C 8.6 °F /  -13 °C 1014.1 in /  34337.4 hPa South 3.2 mph /  5.1 km/h 14.5 mph /  23.3 km/h 86 % 0.3 in /  7.62 mm
14:22 11.0 °F /  -11.7 °C 9.1 °F /  -12.7 °C 1014.1 in /  34337.4 hPa SSW 6.4 mph /  10.3 km/h 11.3 mph /  18.2 km/h 88 % 0.3 in /  7.62 mm
14:27 10.9 °F /  -11.7 °C 8.5 °F /  -13.1 °C 1014.1 in /  34337.4 hPa SSW 4.8 mph /  7.7 km/h 14.5 mph /  23.3 km/h 85 % 0.5 in /  12.7 mm
14:32 10.9 °F /  -11.7 °C 8.8 °F /  -12.9 °C 1014.1 in /  34337.4 hPa SSW 4.8 mph /  7.7 km/h 14.5 mph /  23.3 km/h 87 % 0.3 in /  7.62 mm
14:37 10.9 °F /  -11.7 °C 8.8 °F /  -12.9 °C 1014.1 in /  34337.4 hPa SSW 6.4 mph /  10.3 km/h 14.5 mph /  23.3 km/h 87 % 0.3 in /  7.62 mm
14:42 10.9 °F /  -11.7 °C 8.8 °F /  -12.9 °C 1014.1 in /  34337.4 hPa SW 3.2 mph /  5.1 km/h 14.5 mph /  23.3 km/h 87 % 0.3 in /  7.62 mm
14:47 10.8 °F /  -11.8 °C 7.9 °F /  -13.4 °C 1014.1 in /  34337.4 hPa SW 11.3 mph /  18.2 km/h 14.5 mph /  23.3 km/h 82 % 0.5 in /  12.7 mm
14:52 10.8 °F /  -11.8 °C 7.9 °F /  -13.4 °C 1014.1 in /  34337.4 hPa WSW 4.8 mph /  7.7 km/h 12.9 mph /  20.8 km/h 82 % 0.5 in /  12.7 mm
14:57 11.2 °F /  -11.6 °C 8.6 °F /  -13 °C 1014.1 in /  34337.4 hPa Calm   12.9 mph /  20.8 km/h 84 % 0.5 in /  12.7 mm
15:02 11.4 °F /  -11.4 °C 8.4 °F /  -13.1 °C 1014.1 in /  34337.4 hPa SSW 4.8 mph /  7.7 km/h 12.9 mph /  20.8 km/h 82 % 0.5 in /  12.7 mm
15:07 11.4 °F /  -11.4 °C 8.6 °F /  -13 °C 1014.1 in /  34337.4 hPa SW 6.4 mph /  10.3 km/h 12.9 mph /  20.8 km/h 83 % 0.5 in /  12.7 mm
15:12 11.4 °F /  -11.4 °C 8.4 °F /  -13.1 °C 1014.1 in /  34337.4 hPa SW 6.4 mph /  10.3 km/h 12.9 mph /  20.8 km/h 82 % 0.5 in /  12.7 mm
15:17 11.6 °F /  -11.3 °C 9.2 °F /  -12.7 °C 1013.8 in /  34327.3 hPa SSW 3.2 mph /  5.1 km/h 12.9 mph /  20.8 km/h 85 % 0.5 in /  12.7 mm
15:22 11.6 °F /  -11.3 °C 8.8 °F /  -12.9 °C 1014.1 in /  34337.4 hPa West 4.8 mph /  7.7 km/h 14.5 mph /  23.3 km/h 83 % 0.5 in /  12.7 mm
15:27 11.5 °F /  -11.4 °C 8.9 °F /  -12.8 °C 1013.8 in /  34327.3 hPa SW 6.4 mph /  10.3 km/h 14.5 mph /  23.3 km/h 84 % 0.3 in /  7.62 mm
15:32 11.4 °F /  -11.4 °C 8.6 °F /  -13 °C 1013.8 in /  34327.3 hPa WSW 3.2 mph /  5.1 km/h 11.3 mph /  18.2 km/h 83 % 0.3 in /  7.62 mm
15:37 11.4 °F /  -11.4 °C 8.4 °F /  -13.1 °C 1013.8 in /  34327.3 hPa WSW 4.8 mph /  7.7 km/h 9.7 mph /  15.6 km/h 82 % 0.3 in /  7.62 mm
15:42 11.4 °F /  -11.4 °C 8.1 °F /  -13.3 °C 1013.8 in /  34327.3 hPa WSW 3.2 mph /  5.1 km/h 9.7 mph /  15.6 km/h 80 % 0.3 in /  7.62 mm
15:47 11.4 °F /  -11.4 °C 8.3 °F /  -13.2 °C 1013.8 in /  34327.3 hPa SSW 1.6 mph /  2.6 km/h 9.7 mph /  15.6 km/h 81 % 0.0 in /  0 mm
15:52 11.5 °F /  -11.4 °C 8.5 °F /  -13.1 °C 1013.8 in /  34327.3 hPa WSW 1.6 mph /  2.6 km/h 9.7 mph /  15.6 km/h 82 % 0.0 in /  0 mm
15:57 11.6 °F /  -11.3 °C 8.8 °F /  -12.9 °C 1013.8 in /  34327.3 hPa WSW 1.6 mph /  2.6 km/h 8.0 mph /  12.9 km/h 83 % 0.0 in /  0 mm
16:02 11.6 °F /  -11.3 °C 9.0 °F /  -12.8 °C 1013.8 in /  34327.3 hPa Calm   8.0 mph /  12.9 km/h 84 % 0.0 in /  0 mm
16:07 11.6 °F /  -11.3 °C 8.8 °F /  -12.9 °C 1013.8 in /  34327.3 hPa SW 3.2 mph /  5.1 km/h 9.7 mph /  15.6 km/h 83 % 0.0 in /  0 mm
16:12 11.6 °F /  -11.3 °C 8.8 °F /  -12.9 °C 1013.8 in /  34327.3 hPa West 3.2 mph /  5.1 km/h 9.7 mph /  15.6 km/h 83 % 0.0 in /  0 mm
16:17 11.9 °F /  -11.2 °C 9.3 °F /  -12.6 °C 1013.8 in /  34327.3 hPa SW 3.2 mph /  5.1 km/h 9.7 mph /  15.6 km/h 84 % 0.0 in /  0 mm
16:22 12.2 °F /  -11 °C 9.6 °F /  -12.4 °C 1013.8 in /  34327.3 hPa SSW 6.4 mph /  10.3 km/h 8.0 mph /  12.9 km/h 84 % 0.0 in /  0 mm
16:32 12.2 °F /  -11 °C 8.9 °F /  -12.8 °C 1013.8 in /  34327.3 hPa West 4.8 mph /  7.7 km/h 11.3 mph /  18.2 km/h 80 % 0.0 in /  0 mm
16:37 12.3 °F /  -10.9 °C 9.1 °F /  -12.7 °C 1013.8 in /  34327.3 hPa West 9.7 mph /  15.6 km/h 11.3 mph /  18.2 km/h 81 % 0.0 in /  0 mm
16:42 12.2 °F /  -11 °C 8.7 °F /  -12.9 °C 1013.8 in /  34327.3 hPa SW 1.6 mph /  2.6 km/h 14.5 mph /  23.3 km/h 79 % 0.0 in /  0 mm
16:47 12.3 °F /  -10.9 °C 8.9 °F /  -12.8 °C 1013.8 in /  34327.3 hPa SSW 4.8 mph /  7.7 km/h 14.5 mph /  23.3 km/h 80 % 0.0 in /  0 mm
16:52 12.1 °F /  -11.1 °C 8.2 °F /  -13.2 °C 1013.8 in /  34327.3 hPa SW 3.2 mph /  5.1 km/h 14.5 mph /  23.3 km/h 77 % 0.0 in /  0 mm
16:57 12.2 °F /  -11 °C 8.7 °F /  -12.9 °C 1013.8 in /  34327.3 hPa WNW 1.6 mph /  2.6 km/h 11.3 mph /  18.2 km/h 79 % 0.0 in /  0 mm
17:02 12.2 °F /  -11 °C 8.7 °F /  -12.9 °C 1013.8 in /  34327.3 hPa WSW 4.8 mph /  7.7 km/h 11.3 mph /  18.2 km/h 79 % 0.0 in /  0 mm
17:07 12.3 °F /  -10.9 °C 8.8 °F /  -12.9 °C 1013.8 in /  34327.3 hPa WNW 4.8 mph /  7.7 km/h 9.7 mph /  15.6 km/h 79 % 0.0 in /  0 mm
17:17 12.3 °F /  -10.9 °C 8.8 °F /  -12.9 °C 1013.8 in /  34327.3 hPa West 3.2 mph /  5.1 km/h 12.9 mph /  20.8 km/h 79 % 0.0 in /  0 mm
17:22 12.5 °F /  -10.8 °C 8.8 °F /  -12.9 °C 1013.8 in /  34327.3 hPa SW 8.0 mph /  12.9 km/h 12.9 mph /  20.8 km/h 78 % 0.0 in /  0 mm
17:32 12.3 °F /  -10.9 °C 8.6 °F /  -13 °C 1013.8 in /  34327.3 hPa SW 6.4 mph /  10.3 km/h 12.9 mph /  20.8 km/h 78 % 0.0 in /  0 mm
17:37 12.4 °F /  -10.9 °C 8.9 °F /  -12.8 °C 1013.8 in /  34327.3 hPa WSW 1.6 mph /  2.6 km/h 12.9 mph /  20.8 km/h 79 % 0.0 in /  0 mm
17:42 12.6 °F /  -10.8 °C 9.1 °F /  -12.7 °C 1013.8 in /  34327.3 hPa WSW 4.8 mph /  7.7 km/h 12.9 mph /  20.8 km/h 79 % 0.0 in /  0 mm
17:47 12.7 °F /  -10.7 °C 9.0 °F /  -12.8 °C 1013.8 in /  34327.3 hPa West 3.2 mph /  5.1 km/h 12.9 mph /  20.8 km/h 78 % 0.0 in /  0 mm
17:52 12.6 °F /  -10.8 °C 9.2 °F /  -12.7 °C 1014.1 in /  34337.4 hPa SW 4.8 mph /  7.7 km/h 12.9 mph /  20.8 km/h 80 % 0.0 in /  0 mm
17:57 12.6 °F /  -10.8 °C 9.2 °F /  -12.7 °C 1014.1 in /  34337.4 hPa SW 3.2 mph /  5.1 km/h 9.7 mph /  15.6 km/h 80 % 0.0 in /  0 mm
18:02 12.6 °F /  -10.8 °C 9.6 °F /  -12.4 °C 1014.1 in /  34337.4 hPa WSW 1.6 mph /  2.6 km/h 8.0 mph /  12.9 km/h 82 % 0.0 in /  0 mm
18:07 12.6 °F /  -10.8 °C 9.4 °F /  -12.6 °C 1014.1 in /  34337.4 hPa SW 3.2 mph /  5.1 km/h 9.7 mph /  15.6 km/h 81 % 0.0 in /  0 mm
18:12 12.4 °F /  -10.9 °C 9.2 °F /  -12.7 °C 1014.1 in /  34337.4 hPa SW 3.2 mph /  5.1 km/h 9.7 mph /  15.6 km/h 81 % 0.0 in /  0 mm
18:17 12.3 °F /  -10.9 °C 8.9 °F /  -12.8 °C 1014.4 in /  34347.6 hPa West 4.8 mph /  7.7 km/h 9.7 mph /  15.6 km/h 80 % 0.0 in /  0 mm
18:22 12.2 °F /  -11 °C 9.0 °F /  -12.8 °C 1014.4 in /  34347.6 hPa SW 4.8 mph /  7.7 km/h 9.7 mph /  15.6 km/h 81 % 0.0 in /  0 mm
18:32 12.1 °F /  -11.1 °C 9.1 °F /  -12.7 °C 1014.4 in /  34347.6 hPa WSW 3.2 mph /  5.1 km/h 9.7 mph /  15.6 km/h 82 % 0.0 in /  0 mm
18:42 12.0 °F /  -11.1 °C 9.2 °F /  -12.7 °C 1014.4 in /  34347.6 hPa West 3.2 mph /  5.1 km/h 6.4 mph /  10.3 km/h 83 % 0.0 in /  0 mm
18:47 12.0 °F /  -11.1 °C 9.4 °F /  -12.6 °C 1014.4 in /  34347.6 hPa West 3.2 mph /  5.1 km/h 8.0 mph /  12.9 km/h 84 % 0.0 in /  0 mm
18:52 12.0 °F /  -11.1 °C 9.4 °F /  -12.6 °C 1014.4 in /  34347.6 hPa SW 6.4 mph /  10.3 km/h 8.0 mph /  12.9 km/h 84 % 0.0 in /  0 mm
18:57 11.9 °F /  -11.2 °C 9.3 °F /  -12.6 °C 1014.4 in /  34347.6 hPa WSW 4.8 mph /  7.7 km/h 11.3 mph /  18.2 km/h 84 % 0.0 in /  0 mm
19:02 11.9 °F /  -11.2 °C 9.3 °F /  -12.6 °C 1014.8 in /  34361.1 hPa WSW 8.0 mph /  12.9 km/h 11.3 mph /  18.2 km/h 84 % 0.0 in /  0 mm
19:07 11.8 °F /  -11.2 °C 9.4 °F /  -12.6 °C 1014.4 in /  34347.6 hPa WSW 6.4 mph /  10.3 km/h 12.9 mph /  20.8 km/h 85 % 0.0 in /  0 mm
19:12 11.7 °F /  -11.3 °C 9.4 °F /  -12.6 °C 1014.8 in /  34361.1 hPa West 4.8 mph /  7.7 km/h 12.9 mph /  20.8 km/h 86 % 0.0 in /  0 mm
19:17 11.5 °F /  -11.4 °C 9.4 °F /  -12.6 °C 1014.8 in /  34361.1 hPa WSW 4.8 mph /  7.7 km/h 12.9 mph /  20.8 km/h 87 % 0.0 in /  0 mm
19:22 11.3 °F /  -11.5 °C 9.4 °F /  -12.6 °C 1014.8 in /  34361.1 hPa WSW 4.8 mph /  7.7 km/h 11.3 mph /  18.2 km/h 88 % 0.0 in /  0 mm
19:32 11.2 °F /  -11.6 °C 9.5 °F /  -12.5 °C 1014.8 in /  34361.1 hPa Calm   8.0 mph /  12.9 km/h 89 % 0.3 in /  7.62 mm
19:37 11.2 °F /  -11.6 °C 9.6 °F /  -12.4 °C 1014.8 in /  34361.1 hPa WSW 3.2 mph /  5.1 km/h 8.0 mph /  12.9 km/h 90 % 0.3 in /  7.62 mm
19:42 11.1 °F /  -11.6 °C 9.5 °F /  -12.5 °C 1014.8 in /  34361.1 hPa WSW 3.2 mph /  5.1 km/h 6.4 mph /  10.3 km/h 90 % 0.3 in /  7.62 mm
19:52 10.9 °F /  -11.7 °C 9.5 °F /  -12.5 °C 1015.1 in /  34371.3 hPa West 1.6 mph /  2.6 km/h 6.4 mph /  10.3 km/h 91 % 0.3 in /  7.62 mm
19:57 10.9 °F /  -11.7 °C 9.5 °F /  -12.5 °C 1015.1 in /  34371.3 hPa Calm   6.4 mph /  10.3 km/h 91 % 0.3 in /  7.62 mm
20:02 10.8 °F /  -11.8 °C 9.4 °F /  -12.6 °C 1015.1 in /  34371.3 hPa WSW 1.6 mph /  2.6 km/h 6.4 mph /  10.3 km/h 91 % 0.3 in /  7.62 mm
20:07 10.8 °F /  -11.8 °C 9.4 °F /  -12.6 °C 1015.1 in /  34371.3 hPa Calm   3.2 mph /  5.1 km/h 91 % 0.3 in /  7.62 mm
20:12 10.7 °F /  -11.8 °C 9.5 °F /  -12.5 °C 1015.5 in /  34384.8 hPa WSW 1.6 mph /  2.6 km/h 3.2 mph /  5.1 km/h 92 % 0.3 in /  7.62 mm
20:17 10.6 °F /  -11.9 °C 9.4 °F /  -12.6 °C 1015.5 in /  34384.8 hPa Calm   1.6 mph /  2.6 km/h 92 % 0.3 in /  7.62 mm
20:22 10.5 °F /  -11.9 °C 9.3 °F /  -12.6 °C 1015.5 in /  34384.8 hPa Calm   3.2 mph /  5.1 km/h 92 % 0.3 in /  7.62 mm
20:32 10.3 °F /  -12.1 °C 9.1 °F /  -12.7 °C 1015.8 in /  34395 hPa Calm   3.2 mph /  5.1 km/h 92 % 0.0 in /  0 mm
20:37 10.3 °F /  -12.1 °C 9.2 °F /  -12.7 °C 1015.8 in /  34395 hPa Calm   4.8 mph /  7.7 km/h 93 % 0.0 in /  0 mm
20:42 10.3 °F /  -12.1 °C 9.2 °F /  -12.7 °C 1015.8 in /  34395 hPa WSW 3.2 mph /  5.1 km/h 4.8 mph /  7.7 km/h 93 % 0.0 in /  0 mm
20:47 10.3 °F /  -12.1 °C 9.2 °F /  -12.7 °C 1016.1 in /  34405.1 hPa West 1.6 mph /  2.6 km/h 4.8 mph /  7.7 km/h 93 % 0.0 in /  0 mm
20:52 10.3 °F /  -12.1 °C 9.2 °F /  -12.7 °C 1016.1 in /  34405.1 hPa Calm   4.8 mph /  7.7 km/h 93 % 0.0 in /  0 mm
20:57 10.2 °F /  -12.1 °C 9.1 °F /  -12.7 °C 1016.1 in /  34405.1 hPa WSW 1.6 mph /  2.6 km/h 3.2 mph /  5.1 km/h 93 % 0.0 in /  0 mm
21:02 10.3 °F /  -12.1 °C 9.2 °F /  -12.7 °C 1016.1 in /  34405.1 hPa Calm   3.2 mph /  5.1 km/h 93 % 0.0 in /  0 mm
21:07 10.3 °F /  -12.1 °C 9.2 °F /  -12.7 °C 1016.1 in /  34405.1 hPa WSW 1.6 mph /  2.6 km/h 3.2 mph /  5.1 km/h 93 % 0.0 in /  0 mm
21:12 10.3 °F /  -12.1 °C 9.2 °F /  -12.7 °C 1016.1 in /  34405.1 hPa West 1.6 mph /  2.6 km/h 3.2 mph /  5.1 km/h 93 % 0.0 in /  0 mm
21:17 10.3 °F /  -12.1 °C 9.2 °F /  -12.7 °C 1016.1 in /  34405.1 hPa WSW 3.2 mph /  5.1 km/h 4.8 mph /  7.7 km/h 93 % 0.0 in /  0 mm
21:22 10.4 °F /  -12 °C 9.3 °F /  -12.6 °C 1016.1 in /  34405.1 hPa SW 3.2 mph /  5.1 km/h 6.4 mph /  10.3 km/h 93 % 0.0 in /  0 mm
21:27 10.4 °F /  -12 °C 9.3 °F /  -12.6 °C 1016.1 in /  34405.1 hPa SW 1.6 mph /  2.6 km/h 6.4 mph /  10.3 km/h 93 % 0.0 in /  0 mm
21:32 10.4 °F /  -12 °C 9.3 °F /  -12.6 °C 1016.5 in /  34418.7 hPa WSW 1.6 mph /  2.6 km/h 6.4 mph /  10.3 km/h 93 % 0.0 in /  0 mm
21:37 10.4 °F /  -12 °C 9.3 °F /  -12.6 °C 1016.5 in /  34418.7 hPa SW 4.8 mph /  7.7 km/h 6.4 mph /  10.3 km/h 93 % 0.0 in /  0 mm
21:42 10.4 °F /  -12 °C 9.3 °F /  -12.6 °C 1016.5 in /  34418.7 hPa West 1.6 mph /  2.6 km/h 4.8 mph /  7.7 km/h 93 % 0.0 in /  0 mm
21:47 10.4 °F /  -12 °C 9.5 °F /  -12.5 °C 1016.5 in /  34418.7 hPa SW 3.2 mph /  5.1 km/h 6.4 mph /  10.3 km/h 94 % 0.0 in /  0 mm
21:52 10.4 °F /  -12 °C 9.5 °F /  -12.5 °C 1016.5 in /  34418.7 hPa SW 3.2 mph /  5.1 km/h 6.4 mph /  10.3 km/h 94 % 0.0 in /  0 mm
21:57 10.4 °F /  -12 °C 9.5 °F /  -12.5 °C 1016.5 in /  34418.7 hPa West 3.2 mph /  5.1 km/h 8.0 mph /  12.9 km/h 94 % 0.0 in /  0 mm
22:02 10.4 °F /  -12 °C 9.5 °F /  -12.5 °C 1016.8 in /  34428.8 hPa Calm   8.0 mph /  12.9 km/h 94 % 0.0 in /  0 mm
22:12 10.4 °F /  -12 °C 9.5 °F /  -12.5 °C 1016.8 in /  34428.8 hPa SW 1.6 mph /  2.6 km/h 3.2 mph /  5.1 km/h 94 % 0.3 in /  7.62 mm
22:17 10.4 °F /  -12 °C 9.5 °F /  -12.5 °C 1016.8 in /  34428.8 hPa WSW 1.6 mph /  2.6 km/h 4.8 mph /  7.7 km/h 94 % 0.3 in /  7.62 mm
22:22 10.4 °F /  -12 °C 9.5 °F /  -12.5 °C 1016.8 in /  34428.8 hPa WSW 1.6 mph /  2.6 km/h 6.4 mph /  10.3 km/h 94 % 0.3 in /  7.62 mm
22:32 10.3 °F /  -12.1 °C 9.4 °F /  -12.6 °C 1016.8 in /  34428.8 hPa SW 3.2 mph /  5.1 km/h 6.4 mph /  10.3 km/h 94 % 0.3 in /  7.62 mm
22:47 10.2 °F /  -12.1 °C 9.3 °F /  -12.6 °C 1016.8 in /  34428.8 hPa SW 4.8 mph /  7.7 km/h 4.8 mph /  7.7 km/h 94 % 0.3 in /  7.62 mm
22:52 10.2 °F /  -12.1 °C 9.3 °F /  -12.6 °C 1016.8 in /  34428.8 hPa SW 3.2 mph /  5.1 km/h 4.8 mph /  7.7 km/h 94 % 0.3 in /  7.62 mm
22:57 10.2 °F /  -12.1 °C 9.3 °F /  -12.6 °C 1017.2 in /  34442.4 hPa SW 3.2 mph /  5.1 km/h 6.4 mph /  10.3 km/h 94 % 0.3 in /  7.62 mm
23:02 10.2 °F /  -12.1 °C 9.3 °F /  -12.6 °C 1016.8 in /  34428.8 hPa West 1.6 mph /  2.6 km/h 6.4 mph /  10.3 km/h 94 % 0.0 in /  0 mm
23:07 10.2 °F /  -12.1 °C 9.3 °F /  -12.6 °C 1017.2 in /  34442.4 hPa SW 3.2 mph /  5.1 km/h 6.4 mph /  10.3 km/h 94 % 0.0 in /  0 mm
23:12 10.2 °F /  -12.1 °C 9.3 °F /  -12.6 °C 1017.2 in /  34442.4 hPa SW 1.6 mph /  2.6 km/h 6.4 mph /  10.3 km/h 94 % 0.0 in /  0 mm
23:17 10.2 °F /  -12.1 °C 9.4 °F /  -12.6 °C 1017.2 in /  34442.4 hPa SW 3.2 mph /  5.1 km/h 6.4 mph /  10.3 km/h 95 % 0.0 in /  0 mm
23:22 10.2 °F /  -12.1 °C 9.4 °F /  -12.6 °C 1017.2 in /  34442.4 hPa SW 1.6 mph /  2.6 km/h 6.4 mph /  10.3 km/h 95 % 0.0 in /  0 mm
23:27 10.2 °F /  -12.1 °C 9.4 °F /  -12.6 °C 1017.2 in /  34442.4 hPa Calm   6.4 mph /  10.3 km/h 95 % 0.0 in /  0 mm
23:32 10.1 °F /  -12.2 °C 9.3 °F /  -12.6 °C 1017.2 in /  34442.4 hPa Calm   6.4 mph /  10.3 km/h 95 % 0.0 in /  0 mm
23:37 10.2 °F /  -12.1 °C 9.4 °F /  -12.6 °C 1017.2 in /  34442.4 hPa WNW 1.6 mph /  2.6 km/h 4.8 mph /  7.7 km/h 95 % 0.0 in /  0 mm
23:42 10.1 °F /  -12.2 °C 9.3 °F /  -12.6 °C 1017.2 in /  34442.4 hPa Calm   3.2 mph /  5.1 km/h 95 % 0.0 in /  0 mm
23:47 10.1 °F /  -12.2 °C 9.3 °F /  -12.6 °C 1017.2 in /  34442.4 hPa Calm   3.2 mph /  5.1 km/h 95 % 0.0 in /  0 mm
23:52 10.1 °F /  -12.2 °C 9.3 °F /  -12.6 °C 1017.2 in /  34442.4 hPa Calm   1.6 mph /  2.6 km/h 95 % 0.0 in /  0 mm
23:57 10.1 °F /  -12.2 °C 9.3 °F /  -12.6 °C 1017.2 in /  34442.4 hPa Calm     95 % 0.0 in /  0 mm
Meteo18
Compliments of Weather Underground - 4 mb

Script developed by  Jim McMurry - jmcmurry@mwt.net Adapted for the template by  Wim van der Kuil - Leuven-Template.eu

You find our weather info also at:

European Weather Network

Weather Underground

Equipment we use:

Weather-station
Davis Vue

Weather-program
Meteobridge

Weather-server
Raspberry PI 2 B+

Provider
1 and 1

Davis Vue

Meteobridge

Raspberry PI 2 B+

1 and 1